Terminal Aerodrome Forecast
Issued by NWS

Home | Current Version | Previous Version | Text Only | Print | Product List | Glossary On
Versions: 1 2 3 4 5 6 7 8 9 10 11 12 13 14 15 16 17
710
FTUS46 KSEW 221126
TAFOLM
TAF
KOLM 221126Z 2212/2312 20005KT P6SM SCT010 OVC035
     FM221500 20005KT P6SM SCT015 BKN030 OVC050
      TEMPO 2217/2221 3SM -SHRA BR SCT006 OVC012
     FM222100 26007KT P6SM VCSH SCT025 BKN035
      TEMPO 2221/2224 4SM -SHRA BR SCT010 OVC020
     FM230000 VRB03KT P6SM SCT035 SCT250
     FM230700 VRB03KT 2SM BR BKN010=

USA.gov is the U.S. government's official web portal to all federal, state and local government web resources and services.